Terminal Aerodrome Forecast
Issued by NWS Charleston, WV

Current Version | Previous Version | Graphics & Text | Print | Product List | Glossary On
Versions: 1 2 3 4 5 6 7 8 9 10 11 12 13 14 15 16 17 18 19 20
228
FTUS41 KRLX 220239 AAA
TAFBKW
TAF AMD
KBKW 220239Z 2203/2224 31005KT P6SM FEW050
     FM220400 28004KT P6SM SCT040
     FM220900 00000KT 2SM BR SCT020
     FM221200 VRB03KT P6SM BKN040
     FM221800 26007KT P6SM SHRA VCTS BKN040CB=

USA.gov is the U.S. government's official web portal to all federal, state and local government web resources and services.